createdAt,value
2023-03-05T00:02:22.874Z,101975.16
2023-03-05T00:05:09.327Z,101979.41
2023-03-05T00:07:55.254Z,101989.22
2023-03-05T00:10:40.906Z,101979.56
2023-03-05T00:13:26.585Z,101973.47
2023-03-05T00:16:14.857Z,101972.56
2023-03-05T00:19:01.660Z,101966.53
2023-03-05T00:21:47.636Z,101965.56
2023-03-05T00:24:34.189Z,101966.59
2023-03-05T00:27:20.274Z,101968.50
2023-03-05T00:30:07.161Z,101965.81
2023-03-05T00:32:54.573Z,101969.38
2023-03-05T00:35:41.108Z,101965.81
2023-03-05T00:38:26.855Z,101968.66
2023-03-05T00:41:12.774Z,101968.66
2023-03-05T00:43:58.477Z,101973.91
2023-03-05T00:46:44.246Z,101973.91
2023-03-05T00:49:31.849Z,101974.97
2023-03-05T00:52:17.534Z,101972.34
2023-03-05T00:55:03.310Z,101968.88
2023-03-05T00:57:49.050Z,101970.63
2023-03-05T01:00:35.323Z,101960.94
2023-03-05T01:03:21.119Z,101967.09
2023-03-05T01:06:10.276Z,101964.53
2023-03-05T01:08:56.400Z,101956.75
2023-03-05T01:11:42.794Z,101953.19
2023-03-05T01:14:28.702Z,101951.50
2023-03-05T01:17:14.494Z,101950.66
2023-03-05T01:20:00.387Z,101949.84
2023-03-05T01:22:47.908Z,101948.91
2023-03-05T01:25:33.610Z,101941.25
2023-03-05T01:28:19.448Z,101939.41
2023-03-05T01:31:08.026Z,101934.31
2023-03-05T01:33:53.991Z,101927.16
2023-03-05T01:36:41.404Z,101924.69
2023-03-05T01:39:28.582Z,101931.84
2023-03-05T01:42:14.347Z,101927.38
2023-03-05T01:45:01.244Z,101929.22
2023-03-05T01:47:46.958Z,101930.84
2023-03-05T01:50:32.838Z,101934.44
2023-03-05T01:53:18.575Z,101926.59
2023-03-05T01:56:06.306Z,101930.78
2023-03-05T01:58:52.531Z,101928.16
2023-03-05T02:01:39.777Z,101931.63
2023-03-05T02:04:27.637Z,101929.84
2023-03-05T02:07:13.846Z,101934.31
2023-03-05T02:09:59.790Z,101936.78
2023-03-05T02:12:46.758Z,101938.56
2023-03-05T02:15:32.919Z,101930.63
2023-03-05T02:18:19.627Z,101935.75
2023-03-05T02:21:07.051Z,101935.75
2023-03-05T02:23:52.987Z,101930.63
2023-03-05T02:26:40.486Z,101937.53
2023-03-05T02:29:26.739Z,101931.31
2023-03-05T02:32:13.034Z,101926.84
2023-03-05T02:34:59.289Z,101933.94
2023-03-05T02:37:47.898Z,101932.00
2023-03-05T02:40:33.675Z,101937.19
2023-03-05T02:43:19.461Z,101934.56
2023-03-05T02:46:05.468Z,101933.63
2023-03-05T02:48:51.575Z,101936.13
2023-03-05T02:51:37.448Z,101941.38
2023-03-05T02:54:24.486Z,101951.00
2023-03-05T02:57:10.277Z,101958.88
2023-03-05T02:59:56.219Z,101956.31
2023-03-05T03:02:42.730Z,101969.38
2023-03-05T03:05:29.000Z,101979.84
2023-03-05T03:08:15.079Z,101984.25
2023-03-05T03:11:06.528Z,101987.78
2023-03-05T03:13:52.495Z,101989.56
2023-03-05T03:16:38.378Z,101990.34
2023-03-05T03:19:24.183Z,101991.34
2023-03-05T03:22:10.493Z,101991.19
2023-03-05T03:24:56.928Z,102000.91
2023-03-05T03:27:44.207Z,101991.69
2023-03-05T03:30:30.053Z,101988.06
2023-03-05T03:33:17.997Z,101983.59
2023-03-05T03:36:04.568Z,101989.84
2023-03-05T03:38:50.659Z,101998.69
2023-03-05T03:41:36.685Z,101991.72
2023-03-05T03:44:23.870Z,101996.19
2023-03-05T03:47:09.851Z,102003.13
2023-03-05T03:49:55.781Z,102010.13
2023-03-05T03:52:41.646Z,102011.91
2023-03-05T03:55:27.440Z,102011.97
2023-03-05T03:58:13.184Z,102014.47
2023-03-05T04:01:00.147Z,102012.69
2023-03-05T04:03:46.586Z,102004.91
2023-03-05T04:06:32.477Z,102006.88
2023-03-05T04:09:18.322Z,102005.88
2023-03-05T04:12:04.305Z,102003.41
2023-03-05T04:14:50.168Z,101999.06
2023-03-05T04:17:37.633Z,101995.81
2023-03-05T04:20:23.408Z,102001.06
2023-03-05T04:23:09.444Z,101993.34
2023-03-05T04:25:55.148Z,101990.69
2023-03-05T04:28:41.472Z,101993.25
2023-03-05T04:31:27.152Z,101985.47
2023-03-05T04:34:14.292Z,101991.41
2023-03-05T04:37:00.096Z,101990.56
2023-03-05T04:39:45.879Z,101981.91
2023-03-05T04:42:31.914Z,101985.31
2023-03-05T04:45:18.003Z,101989.78
2023-03-05T04:48:03.717Z,101983.75
2023-03-05T04:50:50.829Z,101975.75
2023-03-05T04:53:36.564Z,101974.06
2023-03-05T04:56:22.246Z,101973.28
2023-03-05T04:59:07.937Z,101968.91
2023-03-05T05:01:53.775Z,101963.66
2023-03-05T05:04:40.385Z,101968.88
2023-03-05T05:07:27.420Z,101974.84
2023-03-05T05:10:13.764Z,101969.75
2023-03-05T05:13:00.009Z,101973.19
2023-03-05T05:15:45.881Z,101971.44
2023-03-05T05:18:32.230Z,101967.13
2023-03-05T05:21:18.614Z,101967.28
2023-03-05T05:24:05.956Z,101969.91
2023-03-05T05:26:52.224Z,101964.88
2023-03-05T05:29:38.155Z,101960.41
2023-03-05T05:32:24.803Z,101956.06
2023-03-05T05:35:11.401Z,101953.38
2023-03-05T05:37:57.435Z,101958.56
2023-03-05T05:40:44.777Z,101948.22
2023-03-05T05:43:30.906Z,101943.13
2023-03-05T05:46:17.352Z,101951.63
2023-03-05T05:49:03.368Z,101947.28
2023-03-05T05:51:49.209Z,101944.53
2023-03-05T05:54:34.940Z,101944.53
2023-03-05T05:57:22.404Z,101935.88
2023-03-05T06:00:09.176Z,101932.34
2023-03-05T06:02:57.416Z,101939.22
2023-03-05T06:05:43.933Z,101946.25
2023-03-05T06:08:29.949Z,101942.84
2023-03-05T06:11:19.437Z,101943.63
2023-03-05T06:14:07.620Z,101942.66
2023-03-05T06:16:53.712Z,101946.91
2023-03-05T06:19:39.867Z,101944.38
2023-03-05T06:22:25.570Z,101949.53
2023-03-05T06:25:11.487Z,101952.94
2023-03-05T06:27:57.122Z,101955.56
2023-03-05T06:30:44.187Z,101954.00
2023-03-05T06:33:29.986Z,101949.34
2023-03-05T06:36:16.660Z,101948.34
2023-03-05T06:39:03.507Z,101944.81
2023-03-05T06:41:51.628Z,101951.59
2023-03-05T06:44:38.830Z,101946.25
2023-03-05T06:47:26.131Z,101944.53
2023-03-05T06:50:12.564Z,101938.31
2023-03-05T06:52:58.363Z,101939.94
2023-03-05T06:55:44.005Z,101939.66
2023-03-05T06:58:29.810Z,101931.66
2023-03-05T07:01:15.763Z,101932.44
2023-03-05T07:04:03.882Z,101934.22
2023-03-05T07:06:49.991Z,101927.97
2023-03-05T07:09:35.716Z,101926.03
2023-03-05T07:12:21.614Z,101922.31
2023-03-05T07:15:08.516Z,101912.63
2023-03-05T07:17:54.335Z,101911.69
2023-03-05T07:20:41.370Z,101908.84
2023-03-05T07:23:27.481Z,101900.00
2023-03-05T07:26:13.354Z,101893.97
2023-03-05T07:28:59.411Z,101889.44
2023-03-05T07:31:45.187Z,101884.81
2023-03-05T07:34:30.923Z,101877.81
2023-03-05T07:37:18.104Z,101876.09
2023-03-05T07:40:04.670Z,101872.41
2023-03-05T07:42:50.745Z,101875.81
2023-03-05T07:45:47.289Z,101876.38
2023-03-05T07:48:33.240Z,101877.25
2023-03-05T07:51:20.018Z,101872.53
2023-03-05T07:54:07.593Z,101873.47
2023-03-05T07:56:53.808Z,101867.97
2023-03-05T07:59:40.072Z,101866.00
2023-03-05T08:02:26.052Z,101864.78
2023-03-05T08:05:11.787Z,101868.09
2023-03-05T08:07:57.621Z,101858.88
2023-03-05T08:10:44.777Z,101850.75
2023-03-05T08:13:30.562Z,101846.59
2023-03-05T08:16:17.185Z,101842.88
2023-03-05T08:19:03.138Z,101843.50
2023-03-05T08:21:49.093Z,101822.19
2023-03-05T08:24:35.584Z,101802.78
2023-03-05T08:27:22.869Z,101786.94
2023-03-05T08:30:11.602Z,101760.34
2023-03-05T08:32:57.892Z,101745.50
2023-03-05T08:35:43.981Z,101719.81
2023-03-05T08:38:29.634Z,101714.09
2023-03-05T08:41:15.473Z,101686.88
2023-03-05T08:44:02.813Z,101662.28
2023-03-05T08:46:48.842Z,101635.84
2023-03-05T08:49:35.037Z,101624.22
2023-03-05T08:52:20.870Z,101600.56
2023-03-05T08:55:06.999Z,101568.78
2023-03-05T08:57:52.660Z,101557.91
2023-03-05T09:00:39.878Z,101530.50
2023-03-05T09:03:25.930Z,101522.69
2023-03-05T09:06:12.375Z,101511.47
2023-03-05T09:08:58.047Z,101495.09
2023-03-05T09:11:43.641Z,101471.75
2023-03-05T09:14:29.558Z,101451.03
2023-03-05T09:17:16.635Z,101415.91
2023-03-05T09:20:02.712Z,101384.50
2023-03-05T09:22:48.602Z,101361.22
2023-03-05T09:25:34.346Z,101341.66
2023-03-05T09:28:20.034Z,101304.22
2023-03-05T09:31:06.304Z,101276.44
2023-03-05T09:33:53.746Z,101241.22
2023-03-05T09:36:39.488Z,101209.59
2023-03-05T09:39:25.201Z,101166.22
2023-03-05T09:42:15.975Z,101119.91
2023-03-05T09:45:04.669Z,101095.44
2023-03-05T09:47:52.572Z,101071.28
2023-03-05T09:50:41.279Z,101033.25
2023-03-05T09:53:31.102Z,101008.31
2023-03-05T09:56:17.891Z,100972.13
2023-03-05T09:59:04.589Z,100938.53
2023-03-05T10:01:50.554Z,100914.94
2023-03-05T10:04:39.875Z,100882.69
2023-03-05T10:07:27.286Z,100862.75
2023-03-05T10:10:14.167Z,100847.41
2023-03-05T10:13:00.693Z,100829.53
2023-03-05T10:15:51.875Z,100812.88
2023-03-05T10:18:38.384Z,100783.94
2023-03-05T10:21:25.861Z,100779.84
2023-03-05T10:24:14.767Z,100766.47
2023-03-05T10:27:01.614Z,100764.19
2023-03-05T10:29:51.989Z,100759.25
2023-03-05T10:32:41.255Z,100743.66
2023-03-05T10:35:35.004Z,100741.50
2023-03-05T10:38:27.018Z,100740.53
2023-03-05T10:41:16.880Z,100734.09
2023-03-05T10:44:04.900Z,100740.59
2023-03-05T10:46:51.196Z,100745.13
2023-03-05T10:49:37.763Z,100736.03
2023-03-05T10:52:24.859Z,100739.84
2023-03-05T10:55:14.215Z,100743.59
2023-03-05T10:58:01.575Z,100747.41
2023-03-05T11:01:00.587Z,100751.03
2023-03-05T11:03:48.468Z,100756.38
2023-03-05T11:06:35.407Z,100761.31
2023-03-05T11:09:24.050Z,100748.72
2023-03-05T11:12:12.123Z,100747.28
2023-03-05T11:15:07.221Z,100744.41
2023-03-05T11:18:05.331Z,100736.72
2023-03-05T11:20:52.035Z,100730.69
2023-03-05T11:23:38.098Z,100716.78
2023-03-05T11:26:23.972Z,100705.31
2023-03-05T11:29:14.631Z,100696.38
2023-03-05T11:32:17.247Z,100683.09
2023-03-05T11:35:03.266Z,100671.91
2023-03-05T11:37:49.181Z,100660.31
2023-03-05T11:40:36.580Z,100657.00
2023-03-05T11:43:22.843Z,100648.31
2023-03-05T11:46:08.844Z,100640.91
2023-03-05T11:48:55.896Z,100647.84
2023-03-05T11:51:43.032Z,100648.88
2023-03-05T11:54:31.502Z,100644.66
2023-03-05T11:57:17.410Z,100650.94
2023-03-05T12:00:03.506Z,100657.25
2023-03-05T12:02:50.864Z,100653.09
2023-03-05T12:05:38.097Z,100640.97
2023-03-05T12:08:26.160Z,100640.41
2023-03-05T12:11:14.754Z,100634.84
2023-03-05T12:14:03.548Z,100636.53
2023-03-05T12:16:49.792Z,100630.34
2023-03-05T12:19:38.820Z,100624.56
2023-03-05T12:22:26.453Z,100611.59
2023-03-05T12:25:24.972Z,100606.56
2023-03-05T12:28:11.869Z,100600.84
2023-03-05T12:30:58.591Z,100594.94
2023-03-05T12:33:44.599Z,100587.28
2023-03-05T12:36:34.896Z,100587.84
2023-03-05T12:39:39.424Z,100579.63
2023-03-05T12:42:45.710Z,100578.09
2023-03-05T12:45:32.374Z,100575.66
2023-03-05T12:48:37.579Z,100564.13
2023-03-05T12:51:34.159Z,100551.25
2023-03-05T12:54:24.376Z,100543.06
2023-03-05T12:57:16.302Z,100537.63
2023-03-05T13:00:06.094Z,100521.66
2023-03-05T13:02:55.754Z,100500.16
2023-03-05T13:05:48.050Z,100503.16
2023-03-05T13:08:35.459Z,100499.53
2023-03-05T13:11:21.975Z,100495.47
2023-03-05T13:14:18.310Z,100505.53
2023-03-05T13:17:25.018Z,100515.88
2023-03-05T13:20:27.960Z,100513.94
2023-03-05T13:23:19.727Z,100515.88
2023-03-05T13:26:11.906Z,100523.16
2023-03-05T13:29:08.146Z,100522.31
2023-03-05T13:31:55.338Z,100508.81
2023-03-05T13:34:47.693Z,100511.69
2023-03-05T13:37:34.707Z,100501.09
2023-03-05T13:40:22.835Z,100491.38
2023-03-05T13:43:13.406Z,100481.50
2023-03-05T13:45:59.564Z,100488.03
2023-03-05T13:48:45.740Z,100482.03
2023-03-05T13:51:43.610Z,100484.13
2023-03-05T13:54:29.573Z,100475.47
2023-03-05T13:57:32.017Z,100463.94
2023-03-05T14:00:33.290Z,100459.09
2023-03-05T14:03:22.981Z,100458.09
2023-03-05T14:06:09.866Z,100454.19
2023-03-05T14:09:00.898Z,100458.38
2023-03-05T14:11:52.708Z,100451.53
2023-03-05T14:14:39.232Z,100448.38
2023-03-05T14:17:32.078Z,100443.50
2023-03-05T14:20:21.427Z,100443.50
2023-03-05T14:23:26.754Z,100445.03
2023-03-05T14:26:27.526Z,100441.00
2023-03-05T14:29:14.841Z,100435.56
2023-03-05T14:32:01.406Z,100432.22
2023-03-05T14:34:48.175Z,100428.72
2023-03-05T14:37:35.505Z,100427.63
2023-03-05T14:40:22.366Z,100419.69
2023-03-05T14:43:11.345Z,100409.69
2023-03-05T14:45:57.177Z,100409.66
2023-03-05T14:48:43.479Z,100405.34
2023-03-05T14:51:29.228Z,100397.81
2023-03-05T14:54:19.315Z,100398.25
2023-03-05T14:57:05.981Z,100393.13
2023-03-05T14:59:53.061Z,100389.50
2023-03-05T15:02:38.957Z,100391.59
2023-03-05T15:05:24.923Z,100381.97
2023-03-05T15:08:13.666Z,100380.31
2023-03-05T15:10:59.410Z,100379.22
2023-03-05T15:13:45.287Z,100374.19
2023-03-05T15:16:33.089Z,100361.53
2023-03-05T15:19:19.393Z,100356.94
2023-03-05T15:22:05.433Z,100358.03
2023-03-05T15:24:51.130Z,100347.22
2023-03-05T15:27:37.001Z,100357.34
2023-03-05T15:30:23.927Z,100352.47
2023-03-05T15:33:11.768Z,100349.41
2023-03-05T15:35:58.077Z,100340.22
2023-03-05T15:38:46.572Z,100335.38
2023-03-05T15:41:32.354Z,100321.72
2023-03-05T15:44:18.198Z,100323.25
2023-03-05T15:47:04.020Z,100325.47
2023-03-05T15:49:51.004Z,100322.38
2023-03-05T15:52:36.817Z,100317.66
2023-03-05T15:55:22.547Z,100311.25
2023-03-05T15:58:08.286Z,100315.25
2023-03-05T16:00:54.114Z,100316.75
2023-03-05T16:03:40.078Z,100321.47
2023-03-05T16:06:27.184Z,100321.00
2023-03-05T16:09:13.582Z,100324.88
2023-03-05T16:11:59.461Z,100328.47
2023-03-05T16:14:45.330Z,100327.88
2023-03-05T16:17:31.126Z,100326.47
2023-03-05T16:20:16.956Z,100321.91
2023-03-05T16:23:04.619Z,100315.38
2023-03-05T16:25:50.609Z,100309.75
2023-03-05T16:28:36.681Z,100311.56
2023-03-05T16:31:22.675Z,100306.69
2023-03-05T16:34:08.929Z,100299.88
2023-03-05T16:36:54.799Z,100303.03
2023-03-05T16:39:42.557Z,100306.66
2023-03-05T16:42:28.565Z,100301.59
2023-03-05T16:45:14.959Z,100299.75
2023-03-05T16:48:01.192Z,100313.47
2023-03-05T16:50:47.407Z,100315.00
2023-03-05T16:53:33.354Z,100317.53
2023-03-05T16:56:20.599Z,100337.03
2023-03-05T16:59:06.394Z,100380.34
2023-03-05T17:01:52.343Z,100384.19
2023-03-05T17:04:38.078Z,100392.34
2023-03-05T17:07:25.335Z,100393.81
2023-03-05T17:10:12.110Z,100399.56
2023-03-05T17:12:59.327Z,100405.78
2023-03-05T17:15:45.341Z,100412.97
2023-03-05T17:18:31.727Z,100414.06
2023-03-05T17:21:17.685Z,100418.75
2023-03-05T17:24:03.754Z,100418.03
2023-03-05T17:26:49.891Z,100419.47
2023-03-05T17:29:37.245Z,100418.72
2023-03-05T17:32:23.245Z,100425.91
2023-03-05T17:35:12.147Z,100430.13
2023-03-05T17:37:57.771Z,100433.72
2023-03-05T17:40:43.488Z,100430.47
2023-03-05T17:43:29.477Z,100439.06
2023-03-05T17:46:16.814Z,100434.28
2023-03-05T17:49:02.920Z,100445.16
2023-03-05T17:51:48.769Z,100456.75
2023-03-05T17:54:34.598Z,100465.34
2023-03-05T17:57:20.347Z,100468.22
2023-03-05T18:00:06.815Z,100475.38
2023-03-05T18:02:59.793Z,100471.53
2023-03-05T18:05:45.871Z,100480.72
2023-03-05T18:08:31.673Z,100488.72
2023-03-05T18:11:17.658Z,100493.47
2023-03-05T18:14:03.405Z,100498.47
2023-03-05T18:16:50.092Z,100496.78
2023-03-05T18:19:37.464Z,100508.50
2023-03-05T18:22:23.540Z,100511.66
2023-03-05T18:25:11.270Z,100521.91
2023-03-05T18:27:57.567Z,100523.94
2023-03-05T18:30:44.115Z,100536.94
2023-03-05T18:33:30.221Z,100533.72
2023-03-05T18:36:17.369Z,100542.75
2023-03-05T18:39:04.052Z,100553.25
2023-03-05T18:41:49.727Z,100553.69
2023-03-05T18:44:35.574Z,100551.28
2023-03-05T18:47:21.237Z,100562.63
2023-03-05T18:50:07.557Z,100561.31
2023-03-05T18:52:54.617Z,100568.41
2023-03-05T18:55:42.634Z,100585.78
2023-03-05T18:58:28.422Z,100585.97
2023-03-05T19:01:14.553Z,100593.34
2023-03-05T19:04:00.535Z,100592.28
2023-03-05T19:06:46.217Z,100595.03
2023-03-05T19:09:48.788Z,100596.81
2023-03-05T19:12:37.331Z,100585.69
2023-03-05T19:15:23.379Z,100597.97
2023-03-05T19:18:09.105Z,100596.53
2023-03-05T19:20:55.392Z,100597.47
2023-03-05T19:23:41.400Z,100598.50
2023-03-05T19:26:28.541Z,100603.00
2023-03-05T19:29:14.186Z,100607.66
2023-03-05T19:31:59.890Z,100605.25
2023-03-05T19:34:45.777Z,100607.34
2023-03-05T19:37:31.780Z,100615.22
2023-03-05T19:40:17.696Z,100611.03
2023-03-05T19:43:05.566Z,100617.31
2023-03-05T19:45:51.903Z,100614.56
2023-03-05T19:48:38.008Z,100620.59
2023-03-05T19:51:25.088Z,100611.22
2023-03-05T19:54:10.894Z,100615.53
2023-03-05T19:56:56.615Z,100615.84
2023-03-05T19:59:46.005Z,100618.38
2023-03-05T20:02:33.237Z,100611.44
2023-03-05T20:05:22.883Z,100611.66
2023-03-05T20:08:08.939Z,100607.25
2023-03-05T20:10:54.792Z,100602.94
2023-03-05T20:13:41.123Z,100596.97
2023-03-05T20:16:29.569Z,100596.97
2023-03-05T20:19:17.014Z,100593.81
2023-03-05T20:22:02.847Z,100590.34
2023-03-05T20:24:48.571Z,100590.34
2023-03-05T20:27:34.507Z,100586.13
2023-03-05T20:30:20.440Z,100594.94
2023-03-05T20:33:08.006Z,100589.81
2023-03-05T20:35:56.190Z,100596.84
2023-03-05T20:38:42.069Z,100587.06
2023-03-05T20:41:28.525Z,100587.19
2023-03-05T20:44:16.356Z,100594.22
2023-03-05T20:47:15.939Z,100598.72
2023-03-05T20:50:03.266Z,100603.13
2023-03-05T20:52:49.034Z,100601.47
2023-03-05T20:55:34.977Z,100607.56
2023-03-05T20:58:20.858Z,100609.13
2023-03-05T21:01:07.011Z,100615.31
2023-03-05T21:03:53.730Z,100614.47
2023-03-05T21:06:40.904Z,100608.28
2023-03-05T21:09:28.252Z,100606.38
2023-03-05T21:12:14.031Z,100604.72
2023-03-05T21:15:00.299Z,100609.00
2023-03-05T21:17:46.444Z,100602.72
2023-03-05T21:20:32.258Z,100600.19
2023-03-05T21:23:19.484Z,100606.94
2023-03-05T21:26:05.766Z,100600.75
2023-03-05T21:28:52.377Z,100598.22
2023-03-05T21:31:41.545Z,100596.44
2023-03-05T21:34:27.850Z,100583.50
2023-03-05T21:37:14.053Z,100583.44
2023-03-05T21:40:01.593Z,100587.84
2023-03-05T21:42:49.148Z,100580.69
2023-03-05T21:45:36.197Z,100575.44
2023-03-05T21:48:28.016Z,100566.63
2023-03-05T21:51:16.733Z,100565.69
2023-03-05T21:54:02.789Z,100555.19
2023-03-05T21:56:49.915Z,100553.50
2023-03-05T21:59:36.125Z,100543.84
2023-03-05T22:02:22.552Z,100544.91
2023-03-05T22:05:09.050Z,100534.19
2023-03-05T22:07:56.556Z,100522.97
2023-03-05T22:10:42.576Z,100517.72
2023-03-05T22:13:29.786Z,100510.78
2023-03-05T22:16:21.157Z,100510.03
2023-03-05T22:19:07.115Z,100500.28
2023-03-05T22:21:53.025Z,100495.03
2023-03-05T22:24:39.194Z,100494.28
2023-03-05T22:27:25.195Z,100488.31
2023-03-05T22:30:13.592Z,100483.16
2023-03-05T22:32:59.486Z,100472.78
2023-03-05T22:35:45.259Z,100479.72
2023-03-05T22:38:31.602Z,100464.91
2023-03-05T22:41:19.671Z,100454.63
2023-03-05T22:44:05.709Z,100445.59
2023-03-05T22:46:53.205Z,100440.34
2023-03-05T22:49:38.838Z,100429.13
2023-03-05T22:52:24.907Z,100419.69
2023-03-05T22:55:11.838Z,100422.31
2023-03-05T22:57:57.793Z,100409.31
2023-03-05T23:00:43.608Z,100410.25
2023-03-05T23:03:30.717Z,100414.56
2023-03-05T23:06:16.441Z,100404.91
2023-03-05T23:09:02.290Z,100402.16
2023-03-05T23:11:48.004Z,100398.81
2023-03-05T23:14:33.804Z,100402.38
2023-03-05T23:17:19.640Z,100407.03
2023-03-05T23:20:10.041Z,100405.22
2023-03-05T23:22:56.217Z,100407.84
2023-03-05T23:25:42.678Z,100411.44
2023-03-05T23:28:28.414Z,100408.28
2023-03-05T23:31:14.249Z,100407.03
2023-03-05T23:34:00.552Z,100411.22
2023-03-05T23:36:47.621Z,100402.38
2023-03-05T23:39:33.291Z,100400.72
2023-03-05T23:42:19.157Z,100402.63
2023-03-05T23:45:05.526Z,100403.34
2023-03-05T23:47:52.597Z,100404.50
2023-03-05T23:50:39.540Z,100397.38
2023-03-05T23:53:28.098Z,100392.97
2023-03-05T23:56:14.069Z,100389.69
2023-03-05T23:59:01.427Z,100385.38
